Time;durP1;ratioP1;P1;durP2;ratioP2;P2;SDS_P1;SDS_P2;PMS_P1;PMS_P2;Temp;Humidity;BMP_temperature;BMP_pressure;BME280_temperature;BME280_humidity;BME280_pressure;Samples;Min_cycle;Max_cycle;Signal;HPM_P1;HPM_P2
2021/09/22 00:03:07;;;;;;;5.13;3.17;;;14.30;70.40;;;;;;10145211;28;20044;-62
2021/09/22 00:07:58;;;;;;;5.95;3.20;;;14.30;70.40;;;;;;10144302;28;20387;-59
2021/09/22 00:12:50;;;;;;;5.20;3.15;;;14.30;70.50;;;;;;10145169;28;20032;-58
2021/09/22 00:17:41;;;;;;;6.93;3.08;;;14.20;71.00;;;;;;10142634;28;20021;-59
2021/09/22 00:22:31;;;;;;;5.57;2.83;;;14.10;71.10;;;;;;10148754;28;20440;-59
2021/09/22 00:27:22;;;;;;;6.47;2.42;;;14.20;71.70;;;;;;10144610;28;20040;-61
2021/09/22 00:32:13;;;;;;;3.83;2.58;;;14.10;71.70;;;;;;10145337;28;20035;-59
2021/09/22 00:37:06;;;;;;;4.35;2.88;;;14.00;71.80;;;;;;10146790;28;20209;-62
2021/09/22 00:41:57;;;;;;;3.50;2.55;;;14.00;71.70;;;;;;10141545;28;20112;-62
2021/09/22 00:46:47;;;;;;;6.18;3.13;;;13.80;72.70;;;;;;10146223;28;20036;-60
2021/09/22 00:51:39;;;;;;;4.60;2.80;;;13.90;72.50;;;;;;10142215;28;20047;-61
2021/09/22 00:56:30;;;;;;;6.38;3.08;;;13.80;72.50;;;;;;10145889;28;20072;-58
2021/09/22 01:01:20;;;;;;;4.15;2.67;;;13.80;72.80;;;;;;10147297;28;20347;-61
2021/09/22 01:06:15;;;;;;;4.63;3.30;;;13.80;72.70;;;;;;10148460;28;20044;-59
2021/09/22 01:11:06;;;;;;;4.68;2.97;;;13.70;73.30;;;;;;10147805;28;20020;-59
2021/09/22 01:15:58;;;;;;;5.13;2.78;;;13.70;73.60;;;;;;10142388;28;20347;-59
2021/09/22 01:20:57;;;;;;;3.35;2.38;;;13.70;73.70;;;;;;10127070;28;20040;-59
2021/09/22 01:25:51;;;;;;;5.63;3.20;;;13.50;74.10;;;;;;10147581;28;20013;-59
2021/09/22 01:30:41;;;;;;;7.00;3.25;;;13.60;73.70;;;;;;10140037;28;20055;-57
2021/09/22 01:35:34;;;;;;;8.55;3.13;;;13.50;74.10;;;;;;10142744;28;20256;-58
2021/09/22 01:40:25;;;;;;;5.65;3.13;;;13.60;74.00;;;;;;10135793;28;20233;-59
2021/09/22 01:45:16;;;;;;;5.32;2.90;;;13.50;74.70;;;;;;10145644;28;20020;-63
2021/09/22 01:50:13;;;;;;;7.30;3.08;;;13.40;74.60;;;;;;10143459;28;20012;-59
2021/09/22 01:55:06;;;;;;;4.43;2.70;;;13.50;74.60;;;;;;10149923;28;20359;-59
2021/09/22 01:59:56;;;;;;;3.50;2.60;;;13.40;74.50;;;;;;10144855;28;20299;-57
2021/09/22 02:04:47;;;;;;;5.07;3.00;;;13.40;74.80;;;;;;10145278;28;20102;-59
2021/09/22 02:09:38;;;;;;;5.28;2.38;;;13.30;75.10;;;;;;10143331;28;20047;-59
2021/09/22 02:14:28;;;;;;;5.45;2.55;;;13.30;75.40;;;;;;10128446;28;20024;-58
2021/09/22 02:19:20;;;;;;;5.63;2.85;;;13.10;75.70;;;;;;10135759;28;20343;-58
2021/09/22 02:24:11;;;;;;;4.55;2.65;;;13.10;75.90;;;;;;10138380;28;20048;-60
2021/09/22 02:29:03;;;;;;;4.53;2.95;;;13.10;75.80;;;;;;10139961;28;20037;-59
2021/09/22 02:33:53;;;;;;;5.55;2.92;;;13.10;75.80;;;;;;10137683;28;20262;-60
2021/09/22 02:38:44;;;;;;;5.13;2.90;;;13.10;76.10;;;;;;10140804;28;20078;-57
2021/09/22 02:43:34;;;;;;;5.43;3.03;;;13.00;76.30;;;;;;10141339;28;20040;-59
2021/09/22 02:48:25;;;;;;;4.53;3.33;;;13.00;76.10;;;;;;10135570;28;20179;-60
2021/09/22 02:53:16;;;;;;;5.97;3.22;;;13.00;76.00;;;;;;10140559;28;20071;-58
2021/09/22 02:58:06;;;;;;;7.20;3.50;;;12.90;76.50;;;;;;10143445;28;20072;-58
2021/09/22 03:02:57;;;;;;;4.43;2.88;;;12.90;76.90;;;;;;10139075;28;20041;-58
2021/09/22 03:07:49;;;;;;;5.18;3.00;;;12.80;76.80;;;;;;10134871;28;20402;-60
2021/09/22 03:12:39;;;;;;;4.22;2.70;;;12.80;77.00;;;;;;10128824;28;20266;-59
2021/09/22 03:17:30;;;;;;;5.60;3.17;;;12.80;77.20;;;;;;10139610;28;20102;-60
2021/09/22 03:22:21;;;;;;;5.72;2.80;;;12.70;77.10;;;;;;10131925;28;20032;-58
2021/09/22 03:27:12;;;;;;;4.35;3.00;;;12.70;77.10;;;;;;10142139;28;20051;-59
2021/09/22 03:32:04;;;;;;;4.50;2.83;;;12.70;77.10;;;;;;10108893;28;20032;-60
2021/09/22 03:36:54;;;;;;;5.70;3.17;;;12.80;77.20;;;;;;10141849;28;20104;-59
2021/09/22 03:41:45;;;;;;;4.07;2.80;;;12.70;77.30;;;;;;10137893;28;20043;-60
2021/09/22 03:46:35;;;;;;;4.57;3.65;;;12.70;77.30;;;;;;10146121;28;20155;-61
2021/09/22 03:51:26;;;;;;;6.38;2.97;;;12.70;77.30;;;;;;10133958;28;20052;-60
2021/09/22 03:56:17;;;;;;;5.63;3.38;;;12.70;77.50;;;;;;10140933;28;20052;-59
2021/09/22 04:01:07;;;;;;;7.32;3.85;;;12.60;78.00;;;;;;10134473;28;20059;-58
2021/09/22 04:05:58;;;;;;;6.53;3.00;;;12.50;78.10;;;;;;10136402;28;20260;-61
2021/09/22 04:10:49;;;;;;;4.38;3.00;;;12.50;78.10;;;;;;10138150;28;20036;-60
2021/09/22 04:15:39;;;;;;;5.78;2.88;;;12.50;78.30;;;;;;10125504;28;20032;-59
2021/09/22 04:20:32;;;;;;;6.28;3.35;;;12.40;78.40;;;;;;10115355;28;20064;-60
2021/09/22 04:25:23;;;;;;;5.32;3.13;;;12.30;79.20;;;;;;10137726;28;20013;-60
2021/09/22 04:30:14;;;;;;;4.07;3.05;;;12.30;79.20;;;;;;10135700;28;20033;-61
2021/09/22 04:35:05;;;;;;;5.38;3.03;;;12.20;79.40;;;;;;10135637;28;20067;-58
2021/09/22 04:39:56;;;;;;;6.78;3.17;;;12.20;79.60;;;;;;10143286;28;20028;-60
2021/09/22 04:44:46;;;;;;;6.00;3.10;;;12.20;80.00;;;;;;10147321;28;20024;-58
2021/09/22 04:49:37;;;;;;;5.47;3.03;;;12.00;80.30;;;;;;10145443;28;20387;-62
2021/09/22 04:54:28;;;;;;;5.15;3.20;;;12.10;80.20;;;;;;10143570;28;20083;-63
2021/09/22 04:59:18;;;;;;;4.30;2.88;;;12.00;80.60;;;;;;10144426;28;20304;-63
2021/09/22 05:04:09;;;;;;;4.93;3.05;;;11.90;80.80;;;;;;10140271;28;20045;-61
2021/09/22 05:09:03;;;;;;;4.28;3.28;;;11.90;80.80;;;;;;10138796;28;20025;-60
2021/09/22 05:13:53;;;;;;;4.32;2.95;;;11.80;81.60;;;;;;10140149;28;20016;-60
2021/09/22 05:18:44;;;;;;;5.18;3.47;;;11.80;81.50;;;;;;10143486;28;20100;-60
2021/09/22 05:23:35;;;;;;;6.40;3.13;;;11.70;81.50;;;;;;10142088;28;20042;-62
2021/09/22 05:28:25;;;;;;;6.10;3.20;;;11.80;81.60;;;;;;10125685;28;20107;-64
2021/09/22 05:33:16;;;;;;;4.90;3.25;;;11.80;81.50;;;;;;10119996;28;20067;-61
2021/09/22 05:38:07;;;;;;;4.13;3.20;;;11.80;81.80;;;;;;10118405;28;20036;-61
2021/09/22 05:42:58;;;;;;;5.60;3.20;;;11.90;81.70;;;;;;10121382;28;20076;-57
2021/09/22 05:47:48;;;;;;;5.70;3.67;;;11.80;81.70;;;;;;10127920;28;20028;-59
2021/09/22 05:52:39;;;;;;;8.10;3.75;;;11.90;81.70;;;;;;10143605;28;20390;-61
2021/09/22 05:57:30;;;;;;;5.57;3.25;;;11.80;82.20;;;;;;10140193;28;20057;-58
2021/09/22 06:02:21;;;;;;;6.78;3.88;;;11.90;82.00;;;;;;10138109;28;20344;-59
2021/09/22 06:07:11;;;;;;;6.80;4.07;;;11.90;82.10;;;;;;10142735;28;20040;-61
2021/09/22 06:12:02;;;;;;;6.63;3.78;;;12.00;82.10;;;;;;10121588;28;20040;-62
2021/09/22 06:16:53;;;;;;;6.75;4.05;;;11.90;82.10;;;;;;10120195;28;20032;-60
2021/09/22 06:21:43;;;;;;;7.13;3.38;;;12.00;82.20;;;;;;10142323;28;20051;-59
2021/09/22 06:26:34;;;;;;;6.28;3.63;;;12.00;82.30;;;;;;10140225;28;20044;-60
2021/09/22 06:31:25;;;;;;;6.93;3.50;;;12.10;82.20;;;;;;10127845;28;20555;-60
2021/09/22 06:36:16;;;;;;;6.13;3.65;;;12.20;81.90;;;;;;10117436;28;20100;-59
2021/09/22 06:41:07;;;;;;;4.88;3.38;;;12.30;82.30;;;;;;10113444;28;20514;-59
2021/09/22 06:45:58;;;;;;;7.35;4.05;;;12.40;81.90;;;;;;10109618;28;20374;-60
2021/09/22 06:50:49;;;;;;;6.10;3.92;;;12.40;82.00;;;;;;10118642;28;20028;-60
2021/09/22 06:55:40;;;;;;;8.07;3.85;;;12.50;82.10;;;;;;10118183;28;20050;-59
2021/09/22 07:00:31;;;;;;;6.68;4.18;;;12.50;82.20;;;;;;10112791;28;20502;-58
2021/09/22 07:05:21;;;;;;;7.95;4.53;;;12.60;82.00;;;;;;10110682;28;20050;-58
2021/09/22 07:10:16;;;;;;;7.97;4.22;;;12.60;82.10;;;;;;10110735;28;20438;-58
2021/09/22 07:15:07;;;;;;;6.35;4.03;;;12.60;82.20;;;;;;10108674;28;20529;-59
2021/09/22 07:19:57;;;;;;;6.97;3.80;;;12.70;82.10;;;;;;10120393;28;20090;-60
2021/09/22 07:24:49;;;;;;;10.68;5.55;;;12.70;82.00;;;;;;10116840;28;20036;-58
2021/09/22 07:29:39;;;;;;;9.38;4.88;;;12.80;81.60;;;;;;10112515;28;20515;-60
2021/09/22 07:34:30;;;;;;;6.43;4.20;;;12.90;81.50;;;;;;10091166;28;20115;-59
2021/09/22 07:39:21;;;;;;;10.05;4.72;;;12.90;81.70;;;;;;10098077;28;20481;-60
2021/09/22 07:44:11;;;;;;;7.28;4.13;;;12.80;81.60;;;;;;10115680;28;20040;-58
2021/09/22 07:49:03;;;;;;;7.63;3.92;;;13.10;81.20;;;;;;10110876;28;20098;-59
2021/09/22 07:53:53;;;;;;;8.55;3.65;;;13.30;81.20;;;;;;10108113;28;20025;-60
2021/09/22 07:58:44;;;;;;;8.68;4.45;;;13.30;81.10;;;;;;10109098;28;20087;-62
2021/09/22 08:03:35;;;;;;;7.70;5.00;;;13.40;81.10;;;;;;10114403;28;20148;-63
2021/09/22 08:08:25;;;;;;;8.20;4.28;;;13.50;80.80;;;;;;10091822;28;20021;-60
2021/09/22 08:13:16;;;;;;;8.18;5.03;;;13.60;80.60;;;;;;10125382;28;20028;-59
2021/09/22 08:18:07;;;;;;;8.65;4.75;;;13.60;80.50;;;;;;10117830;28;20032;-59
2021/09/22 08:22:57;;;;;;;5.68;3.65;;;13.60;80.40;;;;;;10117112;28;20404;-60
2021/09/22 08:27:48;;;;;;;6.70;4.07;;;13.70;80.40;;;;;;10095142;28;20021;-60
2021/09/22 08:32:39;;;;;;;8.77;5.65;;;13.80;80.40;;;;;;10114188;28;20024;-58
2021/09/22 08:37:30;;;;;;;8.25;5.30;;;13.90;80.00;;;;;;10122897;28;20028;-58
2021/09/22 08:42:21;;;;;;;9.07;4.70;;;14.20;79.80;;;;;;10120661;28;20064;-60
2021/09/22 08:47:12;;;;;;;8.52;4.95;;;14.20;79.90;;;;;;10116532;28;20479;-59
2021/09/22 08:52:03;;;;;;;8.98;5.15;;;14.40;79.60;;;;;;10097548;28;20036;-58
2021/09/22 08:56:54;;;;;;;10.13;5.85;;;14.40;79.50;;;;;;10117612;28;20056;-58
2021/09/22 09:02:04;;;;;;;9.50;5.65;;;14.60;79.30;;;;;;10114688;28;20039;-59
2021/09/22 09:06:55;;;;;;;9.32;5.15;;;14.80;78.90;;;;;;10113983;28;20035;-59
2021/09/22 09:11:46;;;;;;;7.35;4.28;;;15.00;78.40;;;;;;10115443;28;20052;-61
2021/09/22 09:16:40;;;;;;;7.72;4.35;;;15.10;78.40;;;;;;10118789;28;20028;-62
2021/09/22 09:21:50;;;;;;;9.88;5.90;;;15.20;78.20;;;;;;10121541;28;20114;-60
2021/09/22 09:26:41;;;;;;;9.13;5.30;;;15.30;78.00;;;;;;10115607;28;20036;-59
2021/09/22 09:31:33;;;;;;;6.50;3.95;;;15.30;78.00;;;;;;10119096;28;20051;-61
2021/09/22 09:36:24;;;;;;;5.78;3.92;;;15.50;77.40;;;;;;10118673;28;20044;-57
2021/09/22 09:41:31;;;;;;;4.30;3.42;;;15.60;77.20;;;;;;10127326;28;20051;-59
2021/09/22 09:46:25;;;;;;;5.10;4.00;;;15.80;76.80;;;;;;10116781;28;20514;-58
2021/09/22 09:51:19;;;;;;;5.97;4.10;;;15.90;76.90;;;;;;10111685;28;20501;-58
2021/09/22 09:56:18;;;;;;;5.78;3.83;;;15.90;76.60;;;;;;10115277;28;20058;-58
2021/09/22 10:01:09;;;;;;;6.85;3.83;;;16.00;76.50;;;;;;10115900;28;20099;-59
2021/09/22 10:06:00;;;;;;;6.90;4.50;;;16.10;76.40;;;;;;10097831;28;20484;-59
2021/09/22 10:10:51;;;;;;;6.00;4.07;;;16.30;75.90;;;;;;10119766;28;20045;-58
2021/09/22 10:15:44;;;;;;;6.55;4.68;;;16.50;75.40;;;;;;10100279;28;20060;-59
2021/09/22 10:20:37;;;;;;;7.55;4.30;;;16.50;75.00;;;;;;10108010;28;20044;-57
2021/09/22 10:25:28;;;;;;;6.95;4.60;;;16.50;74.70;;;;;;10112696;28;20160;-64
2021/09/22 10:30:33;;;;;;;7.00;4.10;;;16.50;74.60;;;;;;10116840;28;20028;-57
2021/09/22 10:35:27;;;;;;;6.40;3.63;;;16.80;73.70;;;;;;10112815;28;20687;-57
2021/09/22 10:40:19;;;;;;;4.90;3.17;;;17.00;73.10;;;;;;10108051;28;20511;-58
2021/09/22 10:45:19;;;;;;;7.32;4.40;;;17.00;72.60;;;;;;10090311;28;20059;-54
2021/09/22 10:50:22;;;;;;;5.47;3.10;;;17.30;72.10;;;;;;10120019;28;20025;-61
2021/09/22 10:55:17;;;;;;;5.72;3.60;;;17.30;71.30;;;;;;10115673;28;20036;-60
2021/09/22 11:00:17;;;;;;;6.45;4.38;;;17.40;70.80;;;;;;10115618;28;20033;-59
2021/09/22 11:05:07;;;;;;;5.05;3.70;;;17.60;70.10;;;;;;10121770;28;20119;-59
2021/09/22 11:09:58;;;;;;;7.80;4.15;;;17.80;69.50;;;;;;10100409;28;20032;-59
2021/09/22 11:14:57;;;;;;;6.18;4.38;;;18.00;69.20;;;;;;10112036;28;20037;-58
2021/09/22 11:20:00;;;;;;;6.25;3.72;;;18.30;68.60;;;;;;10118152;28;20032;-60
2021/09/22 11:24:54;;;;;;;6.75;3.42;;;18.20;68.20;;;;;;10113548;28;20032;-60
2021/09/22 11:29:49;;;;;;;5.40;4.20;;;18.30;68.00;;;;;;10110718;28;20036;-60
2021/09/22 11:34:40;;;;;;;4.78;3.63;;;18.50;67.30;;;;;;10105784;28;20074;-59
2021/09/22 11:39:30;;;;;;;5.82;4.03;;;18.50;67.20;;;;;;10109879;28;20499;-61
2021/09/22 11:44:25;;;;;;;7.35;5.00;;;18.60;66.60;;;;;;10111142;28;20106;-59
2021/09/22 11:49:16;;;;;;;4.20;3.67;;;18.80;66.00;;;;;;10109111;28;20037;-62
2021/09/22 11:54:18;;;;;;;9.60;5.00;;;19.10;65.50;;;;;;10106905;28;20037;-57
2021/09/22 11:59:12;;;;;;;6.50;4.30;;;19.40;64.80;;;;;;10110483;28;20438;-56
2021/09/22 12:04:03;;;;;;;7.00;3.30;;;19.50;64.50;;;;;;10112373;28;20044;-56
2021/09/22 12:08:53;;;;;;;4.85;3.70;;;19.50;64.30;;;;;;10111358;28;20013;-58
2021/09/22 12:13:49;;;;;;;3.95;3.20;;;19.60;64.00;;;;;;10109737;28;20037;-57
2021/09/22 12:18:41;;;;;;;5.38;4.18;;;19.90;63.60;;;;;;10114197;28;20060;-55
2021/09/22 12:23:33;;;;;;;5.95;3.35;;;20.10;62.70;;;;;;10111922;28;20095;-55
2021/09/22 12:28:24;;;;;;;4.68;3.40;;;20.40;62.50;;;;;;10112414;28;20043;-61
2021/09/22 12:33:19;;;;;;;5.72;3.20;;;20.90;62.20;;;;;;10115461;28;20035;-57
2021/09/22 12:38:18;;;;;;;3.42;2.88;;;21.10;61.50;;;;;;10113050;28;20533;-56
2021/09/22 12:43:20;;;;;;;3.95;3.03;;;21.10;61.90;;;;;;10110747;28;20071;-58
2021/09/22 12:48:24;;;;;;;4.43;3.40;;;21.00;60.70;;;;;;10113282;28;20051;-59
2021/09/22 12:53:17;;;;;;;5.85;4.20;;;21.40;61.50;;;;;;10090646;28;20032;-58
2021/09/22 12:58:09;;;;;;;6.43;3.25;;;21.70;61.50;;;;;;10110831;28;20048;-58
2021/09/22 13:03:33;;;;;;;4.53;3.67;;;21.90;61.60;;;;;;10117589;28;20032;-55
2021/09/22 13:08:25;;;;;;;5.50;3.30;;;22.70;60.60;;;;;;10111745;28;20109;-54
2021/09/22 13:13:17;;;;;;;4.60;3.17;;;23.00;60.80;;;;;;10112355;28;20332;-57
2021/09/22 13:18:08;;;;;;;3.50;2.88;;;23.00;60.70;;;;;;10111273;28;20021;-59
2021/09/22 13:22:59;;;;;;;3.90;2.92;;;23.80;59.80;;;;;;10096994;28;20060;-58
2021/09/22 13:27:49;;;;;;;3.47;2.67;;;23.80;58.60;;;;;;10113204;28;20063;-62
2021/09/22 13:32:40;;;;;;;3.47;3.13;;;24.90;56.90;;;;;;10117969;28;20056;-57
2021/09/22 13:37:31;;;;;;;5.18;3.10;;;26.50;54.30;;;;;;10118046;28;20138;-56
2021/09/22 13:42:21;;;;;;;3.80;2.33;;;27.10;51.90;;;;;;10117000;28;20241;-56
2021/09/22 13:47:12;;;;;;;3.58;2.47;;;27.00;50.80;;;;;;10113955;28;20228;-58
2021/09/22 13:52:03;;;;;;;3.92;2.58;;;26.90;50.10;;;;;;10114996;28;20028;-58
2021/09/22 13:56:54;;;;;;;4.15;2.60;;;26.10;50.30;;;;;;10118069;28;20059;-56
2021/09/22 14:01:44;;;;;;;3.03;2.70;;;25.40;51.00;;;;;;10113373;28;20063;-59
2021/09/22 14:06:35;;;;;;;3.83;1.85;;;24.90;51.10;;;;;;10114553;28;20043;-55
2021/09/22 14:11:26;;;;;;;2.88;2.30;;;24.30;51.10;;;;;;10104921;28;20120;-57
2021/09/22 14:16:16;;;;;;;6.88;2.65;;;23.80;51.60;;;;;;10116110;28;20364;-59
2021/09/22 14:21:07;;;;;;;2.20;1.98;;;23.80;51.40;;;;;;10116555;28;20046;-58
2021/09/22 14:25:58;;;;;;;2.20;1.90;;;24.40;50.50;;;;;;10112404;28;20039;-53
2021/09/22 14:30:50;;;;;;;3.78;2.28;;;24.70;50.30;;;;;;10115319;28;20024;-58
2021/09/22 14:35:42;;;;;;;3.70;1.77;;;25.00;49.70;;;;;;10120202;28;20422;-53
2021/09/22 14:40:34;;;;;;;4.10;2.00;;;24.90;49.40;;;;;;10116570;28;20036;-58
2021/09/22 14:45:26;;;;;;;2.55;1.70;;;24.50;49.50;;;;;;10096862;28;20651;-59
2021/09/22 14:50:18;;;;;;;3.20;2.58;;;24.10;49.90;;;;;;10097160;28;20032;-58
2021/09/22 14:55:11;;;;;;;3.67;2.30;;;23.70;50.10;;;;;;10113673;28;20037;-58
2021/09/22 15:00:04;;;;;;;2.83;1.63;;;23.20;50.40;;;;;;10110244;28;20028;-58
2021/09/22 15:04:55;;;;;;;2.40;1.67;;;23.20;50.40;;;;;;10113248;28;20039;-54
2021/09/22 15:09:46;;;;;;;2.88;1.80;;;23.10;50.10;;;;;;10112097;28;20021;-58
2021/09/22 15:14:36;;;;;;;2.58;1.65;;;23.10;50.10;;;;;;10113564;28;20028;-55
2021/09/22 15:19:27;;;;;;;2.55;1.55;;;23.20;50.00;;;;;;10113095;28;20627;-55
2021/09/22 15:24:19;;;;;;;2.50;1.75;;;23.60;49.60;;;;;;10112268;28;20045;-56
2021/09/22 15:29:10;;;;;;;3.65;1.80;;;24.00;48.60;;;;;;10107251;28;20020;-59
2021/09/22 15:34:04;;;;;;;3.50;1.80;;;24.10;48.60;;;;;;10114880;28;20081;-56
2021/09/22 15:38:54;;;;;;;4.00;1.98;;;24.50;47.90;;;;;;10118769;28;20028;-57
2021/09/22 15:43:46;;;;;;;3.00;2.33;;;25.20;47.30;;;;;;10115243;28;20059;-58
2021/09/22 15:48:37;;;;;;;3.35;1.58;;;25.60;46.70;;;;;;10112428;28;20487;-56
2021/09/22 15:53:27;;;;;;;3.53;2.08;;;25.50;47.00;;;;;;10104460;28;21243;-53
2021/09/22 15:58:19;;;;;;;2.22;1.50;;;25.80;46.80;;;;;;10108939;28;21030;-57
2021/09/22 16:03:10;;;;;;;2.40;1.77;;;26.10;46.50;;;;;;10106016;28;20844;-56
2021/09/22 16:08:01;;;;;;;4.18;2.55;;;26.20;46.60;;;;;;10106571;28;20028;-61
2021/09/22 16:12:51;;;;;;;2.58;1.80;;;26.50;46.10;;;;;;10109366;28;20020;-57
2021/09/22 16:17:42;;;;;;;3.90;2.08;;;26.20;46.20;;;;;;10112389;28;20066;-57
2021/09/22 16:22:33;;;;;;;2.30;1.60;;;24.10;49.00;;;;;;10105242;28;20076;-57
2021/09/22 16:27:24;;;;;;;2.63;1.70;;;22.50;51.70;;;;;;10112500;28;20028;-59
2021/09/22 16:32:15;;;;;;;2.80;1.63;;;21.90;52.60;;;;;;10102256;28;20029;-59
2021/09/22 16:37:06;;;;;;;6.40;1.83;;;21.60;53.40;;;;;;10119584;28;20486;-59
2021/09/22 16:41:56;;;;;;;3.30;1.77;;;21.50;53.40;;;;;;10119720;28;20367;-61
2021/09/22 16:46:47;;;;;;;2.90;1.70;;;21.40;53.60;;;;;;10114704;28;20151;-62
2021/09/22 16:51:40;;;;;;;2.25;1.63;;;21.20;53.70;;;;;;10115958;28;20103;-61
2021/09/22 16:56:30;;;;;;;2.85;1.95;;;20.80;54.80;;;;;;10109480;28;20044;-60
2021/09/22 17:01:21;;;;;;;4.40;2.13;;;20.60;55.30;;;;;;10119126;28;20106;-62
2021/09/22 17:06:12;;;;;;;3.30;1.58;;;20.30;55.90;;;;;;10121817;28;20105;-62
2021/09/22 17:11:02;;;;;;;2.78;1.58;;;20.20;56.10;;;;;;10127147;28;20082;-56
2021/09/22 17:15:53;;;;;;;2.58;1.77;;;20.00;56.70;;;;;;10121681;28;20196;-61
2021/09/22 17:20:44;;;;;;;3.50;1.75;;;19.90;57.10;;;;;;10124564;28;20037;-61
2021/09/22 17:25:34;;;;;;;4.93;2.03;;;19.60;57.80;;;;;;10111710;28;20571;-59
2021/09/22 17:30:27;;;;;;;3.15;1.58;;;19.50;58.20;;;;;;10123159;28;20025;-60
2021/09/22 17:35:17;;;;;;;3.13;1.60;;;19.30;58.50;;;;;;10123346;28;20024;-59
2021/09/22 17:40:09;;;;;;;3.95;1.60;;;19.20;59.00;;;;;;10115008;28;20499;-59
2021/09/22 17:45:00;;;;;;;2.97;1.63;;;19.20;59.00;;;;;;10110731;28;20035;-63
2021/09/22 17:49:51;;;;;;;3.58;1.95;;;19.10;59.50;;;;;;10107002;28;20029;-58
2021/09/22 17:54:42;;;;;;;4.20;2.00;;;19.10;59.80;;;;;;10111387;28;20479;-64
2021/09/22 17:59:33;;;;;;;3.40;1.95;;;18.90;60.50;;;;;;10116728;28;20044;-63
2021/09/22 18:04:24;;;;;;;3.42;2.28;;;18.80;60.80;;;;;;10108226;28;20498;-64
2021/09/22 18:09:15;;;;;;;2.50;2.28;;;18.80;61.50;;;;;;10119106;28;20066;-63
2021/09/22 18:14:06;;;;;;;4.22;2.08;;;18.60;61.60;;;;;;10111362;28;20090;-62
2021/09/22 18:18:56;;;;;;;3.70;1.95;;;18.60;62.30;;;;;;10113676;28;20075;-65
2021/09/22 18:23:47;;;;;;;3.60;2.00;;;18.50;62.40;;;;;;10110426;28;20143;-63
2021/09/22 18:28:38;;;;;;;3.33;2.00;;;18.50;62.60;;;;;;10114973;28;20021;-63
2021/09/22 18:33:29;;;;;;;3.05;1.77;;;18.50;62.90;;;;;;10120111;28;20531;-62
2021/09/22 18:38:20;;;;;;;3.83;1.70;;;18.40;63.30;;;;;;10115817;28;20021;-60
2021/09/22 18:43:11;;;;;;;2.22;1.70;;;18.30;64.00;;;;;;10111237;28;20039;-60
2021/09/22 18:48:04;;;;;;;4.43;2.50;;;18.20;64.50;;;;;;10115222;28;20025;-63
2021/09/22 18:52:55;;;;;;;5.05;2.78;;;18.20;64.60;;;;;;10098889;28;20116;-60
2021/09/22 18:57:46;;;;;;;3.90;2.72;;;18.10;64.90;;;;;;10114217;28;20049;-62
2021/09/22 19:02:37;;;;;;;5.88;3.47;;;18.10;65.30;;;;;;10114763;28;20036;-64
2021/09/22 19:07:28;;;;;;;4.72;2.40;;;18.00;65.80;;;;;;10096783;28;20064;-63
2021/09/22 19:12:19;;;;;;;2.47;2.13;;;17.90;66.50;;;;;;10114549;28;20051;-64
2021/09/22 19:17:10;;;;;;;6.93;2.03;;;17.80;66.80;;;;;;10111881;28;20078;-63
2021/09/22 19:22:01;;;;;;;4.32;2.22;;;17.70;67.10;;;;;;10094908;28;20090;-64
2021/09/22 19:26:52;;;;;;;6.03;2.58;;;17.60;67.50;;;;;;10115250;28;20096;-61
2021/09/22 19:31:43;;;;;;;2.47;2.13;;;17.60;68.60;;;;;;10114448;28;20516;-60
2021/09/22 19:36:35;;;;;;;2.60;2.15;;;17.60;68.10;;;;;;10116259;28;20869;-54
2021/09/22 19:41:26;;;;;;;5.10;2.33;;;17.50;68.60;;;;;;10109517;28;20056;-63
2021/09/22 19:46:18;;;;;;;3.90;2.53;;;17.40;69.10;;;;;;10112496;28;20013;-61
2021/09/22 19:51:08;;;;;;;2.38;1.92;;;17.30;69.40;;;;;;10114134;28;20040;-63
2021/09/22 19:55:59;;;;;;;3.38;1.95;;;17.20;69.70;;;;;;10117058;28;20042;-65
2021/09/22 20:00:50;;;;;;;2.60;1.92;;;17.10;70.00;;;;;;10112913;28;20041;-61
2021/09/22 20:05:40;;;;;;;3.40;2.17;;;17.10;70.50;;;;;;10115330;28;20059;-58
2021/09/22 20:10:31;;;;;;;4.10;2.40;;;17.00;70.70;;;;;;10123845;28;20387;-61
2021/09/22 20:15:22;;;;;;;4.10;2.83;;;16.90;71.20;;;;;;10115021;28;20399;-57
2021/09/22 20:20:14;;;;;;;3.15;2.45;;;16.90;71.50;;;;;;10114065;28;20522;-59
2021/09/22 20:25:07;;;;;;;4.63;2.67;;;16.90;71.70;;;;;;10113787;28;20330;-60
2021/09/22 20:29:59;;;;;;;4.47;2.42;;;16.90;71.70;;;;;;10116740;28;20035;-57
2021/09/22 20:34:50;;;;;;;4.78;2.70;;;16.90;71.90;;;;;;10102916;28;20029;-58
2021/09/22 20:39:41;;;;;;;5.10;2.97;;;16.80;71.90;;;;;;10108446;28;20332;-58
2021/09/22 20:44:33;;;;;;;8.80;3.15;;;16.80;72.30;;;;;;10125718;28;20048;-55
2021/09/22 20:49:24;;;;;;;5.18;2.80;;;16.70;72.70;;;;;;10114881;28;20021;-54
2021/09/22 20:54:16;;;;;;;4.97;3.20;;;16.60;72.70;;;;;;10095947;28;20041;-54
2021/09/22 20:59:07;;;;;;;4.95;3.00;;;16.70;72.90;;;;;;10121315;28;20541;-60
2021/09/22 21:03:57;;;;;;;7.90;2.95;;;16.60;73.70;;;;;;10122271;28;20056;-56
2021/09/22 21:08:48;;;;;;;4.55;2.63;;;16.60;73.30;;;;;;10124072;28;20032;-60
2021/09/22 21:13:39;;;;;;;6.50;3.03;;;16.50;73.30;;;;;;10123926;28;21139;-60
2021/09/22 21:18:29;;;;;;;11.10;3.22;;;16.40;73.60;;;;;;10119790;28;20040;-57
2021/09/22 21:23:20;;;;;;;6.05;2.55;;;16.40;73.90;;;;;;10122378;28;20047;-58
2021/09/22 21:28:13;;;;;;;7.57;2.78;;;16.30;74.10;;;;;;10124033;28;20033;-59
2021/09/22 21:33:03;;;;;;;3.75;2.35;;;16.30;74.20;;;;;;10117484;28;20057;-59
2021/09/22 21:37:55;;;;;;;5.22;3.08;;;16.30;74.50;;;;;;10109401;28;20044;-58
2021/09/22 21:42:45;;;;;;;6.22;3.45;;;16.30;74.50;;;;;;10119468;28;20036;-58
2021/09/22 21:47:36;;;;;;;5.65;3.22;;;16.20;74.60;;;;;;10117931;28;20021;-60
2021/09/22 21:52:27;;;;;;;6.32;3.75;;;16.20;74.70;;;;;;10130110;28;20368;-55
2021/09/22 21:57:17;;;;;;;4.70;3.10;;;16.10;74.90;;;;;;10119902;28;20589;-54
2021/09/22 22:02:08;;;;;;;8.30;3.97;;;16.00;75.60;;;;;;10119697;28;20045;-55
2021/09/22 22:06:59;;;;;;;7.80;3.47;;;15.90;75.50;;;;;;10120445;28;20021;-61
2021/09/22 22:11:50;;;;;;;4.53;3.25;;;15.90;75.80;;;;;;10118690;28;20115;-61
2021/09/22 22:16:40;;;;;;;7.78;4.40;;;15.60;76.50;;;;;;10115173;28;20025;-57
2021/09/22 22:21:31;;;;;;;5.82;3.70;;;15.60;76.60;;;;;;10113904;28;20036;-58
2021/09/22 22:26:22;;;;;;;6.70;3.22;;;15.60;76.60;;;;;;10117945;28;20036;-58
2021/09/22 22:31:12;;;;;;;3.45;2.50;;;15.60;76.70;;;;;;10114704;28;20444;-61
2021/09/22 22:36:04;;;;;;;5.90;2.67;;;15.60;76.70;;;;;;10114841;28;20025;-58
2021/09/22 22:40:56;;;;;;;4.15;2.53;;;15.40;77.10;;;;;;10114953;28;20402;-58
2021/09/22 22:45:47;;;;;;;4.57;2.97;;;15.60;77.10;;;;;;10111640;28;20074;-59
2021/09/22 22:50:37;;;;;;;4.25;2.65;;;15.50;77.00;;;;;;10113285;28;20036;-59
2021/09/22 22:55:28;;;;;;;5.32;3.38;;;15.40;77.40;;;;;;10115843;28;20052;-56
2021/09/22 23:00:19;;;;;;;2.85;2.30;;;15.40;77.40;;;;;;10114239;28;20032;-59
2021/09/22 23:05:10;;;;;;;5.22;2.80;;;15.40;77.50;;;;;;10116064;28;20494;-56
2021/09/22 23:10:01;;;;;;;4.40;3.05;;;15.40;77.80;;;;;;10108655;28;20445;-60
2021/09/22 23:14:55;;;;;;;6.57;2.92;;;15.40;77.70;;;;;;10113012;28;20036;-60
2021/09/22 23:24:54;;;;;;;3.47;2.58;;;15.30;78.20;;;;;;10107502;28;20051;-56
2021/09/22 23:29:45;;;;;;;5.60;3.13;;;15.30;78.10;;;;;;10113984;28;20027;-58
2021/09/22 23:34:35;;;;;;;4.20;2.65;;;15.30;78.20;;;;;;10110300;28;20124;-55
2021/09/22 23:39:26;;;;;;;4.50;3.15;;;15.10;78.50;;;;;;10108100;28;20506;-56
2021/09/22 23:44:16;;;;;;;4.90;2.95;;;15.10;78.50;;;;;;10113044;28;20041;-53
2021/09/22 23:49:07;;;;;;;6.20;3.20;;;15.00;78.80;;;;;;10120094;28;20028;-56
2021/09/22 23:53:58;;;;;;;5.43;2.85;;;14.90;79.10;;;;;;10115177;28;20381;-57
2021/09/22 23:58:48;;;;;;;5.07;3.08;;;14.80;79.20;;;;;;10114594;28;20096;-55
